sensor_id;sensor_type;location;lat;lon;timestamp;pressure;altitude;pressure_sealevel;temperature;humidity
72896;BME280;61036;53.224;6.554;2023-04-08T00:00:06;102411.91;;;5.74;100.00
72896;BME280;61036;53.224;6.554;2023-04-08T00:02:35;102417.72;;;5.59;100.00
72896;BME280;61036;53.224;6.554;2023-04-08T00:05:00;102412.34;;;5.61;100.00
72896;BME280;61036;53.224;6.554;2023-04-08T00:07:26;102423.00;;;5.62;100.00
72896;BME280;61036;53.224;6.554;2023-04-08T00:09:51;102422.72;;;5.42;100.00
72896;BME280;61036;53.224;6.554;2023-04-08T00:12:18;102425.19;;;5.79;100.00
72896;BME280;61036;53.224;6.554;2023-04-08T00:14:43;102419.78;;;5.49;100.00
72896;BME280;61036;53.224;6.554;2023-04-08T00:17:09;102432.47;;;5.43;100.00
72896;BME280;61036;53.224;6.554;2023-04-08T00:19:35;102421.16;;;5.64;100.00
72896;BME280;61036;53.224;6.554;2023-04-08T00:22:01;102431.63;;;5.41;100.00
72896;BME280;61036;53.224;6.554;2023-04-08T00:24:26;102427.72;;;5.54;100.00
72896;BME280;61036;53.224;6.554;2023-04-08T00:26:52;102432.59;;;5.38;100.00
72896;BME280;61036;53.224;6.554;2023-04-08T00:29:17;102427.81;;;5.49;100.00
72896;BME280;61036;53.224;6.554;2023-04-08T00:31:42;102438.31;;;5.57;100.00
72896;BME280;61036;53.224;6.554;2023-04-08T00:34:08;102434.53;;;5.33;100.00
72896;BME280;61036;53.224;6.554;2023-04-08T00:36:33;102436.81;;;5.47;100.00
72896;BME280;61036;53.224;6.554;2023-04-08T00:39:00;102439.66;;;5.41;100.00
72896;BME280;61036;53.224;6.554;2023-04-08T00:41:26;102443.25;;;5.40;100.00
72896;BME280;61036;53.224;6.554;2023-04-08T00:43:53;102448.28;;;5.52;100.00
72896;BME280;61036;53.224;6.554;2023-04-08T00:46:18;102451.47;;;5.34;100.00
72896;BME280;61036;53.224;6.554;2023-04-08T00:48:44;102447.84;;;5.35;100.00
72896;BME280;61036;53.224;6.554;2023-04-08T00:51:10;102446.13;;;5.32;100.00
72896;BME280;61036;53.224;6.554;2023-04-08T00:53:36;102448.03;;;5.28;100.00
72896;BME280;61036;53.224;6.554;2023-04-08T00:56:02;102447.91;;;5.33;100.00
72896;BME280;61036;53.224;6.554;2023-04-08T00:58:28;102451.66;;;5.26;100.00
72896;BME280;61036;53.224;6.554;2023-04-08T01:01:06;102451.16;;;5.44;100.00
72896;BME280;61036;53.224;6.554;2023-04-08T01:08:32;102453.63;;;5.19;100.00
72896;BME280;61036;53.224;6.554;2023-04-08T01:11:01;102450.88;;;5.22;100.00
72896;BME280;61036;53.224;6.554;2023-04-08T01:13:30;102452.47;;;5.30;100.00
72896;BME280;61036;53.224;6.554;2023-04-08T01:15:58;102454.81;;;5.08;100.00
72896;BME280;61036;53.224;6.554;2023-04-08T01:18:25;102450.25;;;5.11;100.00
72896;BME280;61036;53.224;6.554;2023-04-08T01:20:52;102460.84;;;5.16;100.00
72896;BME280;61036;53.224;6.554;2023-04-08T01:24:14;102458.38;;;5.08;100.00
72896;BME280;61036;53.224;6.554;2023-04-08T01:26:30;102457.94;;;4.91;100.00
72896;BME280;61036;53.224;6.554;2023-04-08T01:28:58;102455.94;;;4.99;100.00
72896;BME280;61036;53.224;6.554;2023-04-08T01:31:25;102465.66;;;5.03;100.00
72896;BME280;61036;53.224;6.554;2023-04-08T01:33:51;102457.88;;;4.94;100.00
72896;BME280;61036;53.224;6.554;2023-04-08T01:36:19;102451.53;;;4.96;100.00
72896;BME280;61036;53.224;6.554;2023-04-08T01:38:46;102454.97;;;5.01;100.00
72896;BME280;61036;53.224;6.554;2023-04-08T01:41:16;102467.44;;;5.02;100.00
72896;BME280;61036;53.224;6.554;2023-04-08T01:43:43;102461.13;;;5.05;100.00
72896;BME280;61036;53.224;6.554;2023-04-08T01:46:10;102462.84;;;5.08;100.00
72896;BME280;61036;53.224;6.554;2023-04-08T01:48:37;102469.13;;;5.05;100.00
72896;BME280;61036;53.224;6.554;2023-04-08T01:51:04;102467.72;;;4.92;100.00
72896;BME280;61036;53.224;6.554;2023-04-08T01:53:30;102471.06;;;5.00;100.00
72896;BME280;61036;53.224;6.554;2023-04-08T01:56:04;102469.19;;;5.03;100.00
72896;BME280;61036;53.224;6.554;2023-04-08T01:58:35;102475.31;;;5.09;100.00
72896;BME280;61036;53.224;6.554;2023-04-08T02:01:03;102473.66;;;5.03;100.00
72896;BME280;61036;53.224;6.554;2023-04-08T02:03:30;102478.56;;;4.84;100.00
72896;BME280;61036;53.224;6.554;2023-04-08T02:05:56;102472.56;;;4.76;100.00
72896;BME280;61036;53.224;6.554;2023-04-08T02:08:22;102477.47;;;4.93;100.00
72896;BME280;61036;53.224;6.554;2023-04-08T02:10:47;102467.72;;;4.92;100.00
72896;BME280;61036;53.224;6.554;2023-04-08T02:13:13;102471.16;;;4.97;100.00
72896;BME280;61036;53.224;6.554;2023-04-08T02:15:41;102475.56;;;4.99;100.00
72896;BME280;61036;53.224;6.554;2023-04-08T02:18:21;102471.50;;;4.83;100.00
72896;BME280;61036;53.224;6.554;2023-04-08T02:21:07;102475.72;;;4.92;100.00
72896;BME280;61036;53.224;6.554;2023-04-08T02:23:37;102480.44;;;4.80;100.00
72896;BME280;61036;53.224;6.554;2023-04-08T02:26:07;102485.53;;;4.91;100.00
72896;BME280;61036;53.224;6.554;2023-04-08T02:28:38;102474.81;;;4.93;100.00
72896;BME280;61036;53.224;6.554;2023-04-08T02:31:04;102486.41;;;4.92;100.00
72896;BME280;61036;53.224;6.554;2023-04-08T02:33:33;102479.09;;;5.00;100.00
72896;BME280;61036;53.224;6.554;2023-04-08T02:36:01;102488.09;;;4.96;100.00
72896;BME280;61036;53.224;6.554;2023-04-08T02:38:27;102491.06;;;4.84;100.00
72896;BME280;61036;53.224;6.554;2023-04-08T02:40:55;102491.28;;;4.76;100.00
72896;BME280;61036;53.224;6.554;2023-04-08T02:43:20;102491.91;;;4.86;100.00
72896;BME280;61036;53.224;6.554;2023-04-08T02:45:46;102494.59;;;4.86;100.00
72896;BME280;61036;53.224;6.554;2023-04-08T02:48:13;102492.22;;;4.73;100.00
72896;BME280;61036;53.224;6.554;2023-04-08T02:50:39;102494.16;;;4.67;100.00
72896;BME280;61036;53.224;6.554;2023-04-08T02:53:07;102488.69;;;4.73;100.00
72896;BME280;61036;53.224;6.554;2023-04-08T02:55:33;102494.25;;;4.62;100.00
72896;BME280;61036;53.224;6.554;2023-04-08T02:57:58;102496.91;;;4.64;100.00
72896;BME280;61036;53.224;6.554;2023-04-08T03:00:24;102501.50;;;4.57;100.00
72896;BME280;61036;53.224;6.554;2023-04-08T03:02:49;102495.44;;;4.50;100.00
72896;BME280;61036;53.224;6.554;2023-04-08T03:05:15;102507.84;;;4.53;100.00
72896;BME280;61036;53.224;6.554;2023-04-08T03:07:41;102508.47;;;4.25;100.00
72896;BME280;61036;53.224;6.554;2023-04-08T03:10:07;102504.84;;;4.28;100.00
72896;BME280;61036;53.224;6.554;2023-04-08T03:12:32;102509.34;;;4.26;100.00
72896;BME280;61036;53.224;6.554;2023-04-08T03:14:58;102508.41;;;4.28;100.00
72896;BME280;61036;53.224;6.554;2023-04-08T03:17:24;102509.88;;;4.42;100.00
72896;BME280;61036;53.224;6.554;2023-04-08T03:19:50;102504.38;;;4.49;100.00
72896;BME280;61036;53.224;6.554;2023-04-08T03:22:15;102505.38;;;4.45;100.00
72896;BME280;61036;53.224;6.554;2023-04-08T03:24:41;102507.31;;;4.37;100.00
72896;BME280;61036;53.224;6.554;2023-04-08T03:27:06;102506.38;;;4.40;100.00
72896;BME280;61036;53.224;6.554;2023-04-08T03:29:32;102512.81;;;4.29;100.00
72896;BME280;61036;53.224;6.554;2023-04-08T03:31:58;102513.75;;;4.28;100.00
72896;BME280;61036;53.224;6.554;2023-04-08T03:34:24;102518.81;;;4.39;100.00
72896;BME280;61036;53.224;6.554;2023-04-08T03:36:49;102518.94;;;4.34;100.00
72896;BME280;61036;53.224;6.554;2023-04-08T03:39:15;102515.19;;;4.43;100.00
72896;BME280;61036;53.224;6.554;2023-04-08T03:41:40;102517.75;;;4.48;100.00
72896;BME280;61036;53.224;6.554;2023-04-08T03:44:05;102507.97;;;4.48;100.00
72896;BME280;61036;53.224;6.554;2023-04-08T03:46:31;102515.13;;;4.46;100.00
72896;BME280;61036;53.224;6.554;2023-04-08T03:48:56;102516.03;;;4.45;100.00
72896;BME280;61036;53.224;6.554;2023-04-08T03:51:22;102523.13;;;4.46;100.00
72896;BME280;61036;53.224;6.554;2023-04-08T03:53:47;102517.84;;;4.43;100.00
72896;BME280;61036;53.224;6.554;2023-04-08T03:56:14;102516.88;;;4.47;100.00
72896;BME280;61036;53.224;6.554;2023-04-08T03:58:39;102517.00;;;4.41;100.00
72896;BME280;61036;53.224;6.554;2023-04-08T04:01:05;102516.03;;;4.45;100.00
72896;BME280;61036;53.224;6.554;2023-04-08T04:03:30;102516.78;;;4.50;100.00
72896;BME280;61036;53.224;6.554;2023-04-08T04:05:56;102515.84;;;4.54;100.00
72896;BME280;61036;53.224;6.554;2023-04-08T04:08:21;102523.88;;;4.53;100.00
72896;BME280;61036;53.224;6.554;2023-04-08T04:10:47;102520.25;;;4.55;100.00
72896;BME280;61036;53.224;6.554;2023-04-08T04:13:12;102522.06;;;4.55;100.00
72896;BME280;61036;53.224;6.554;2023-04-08T04:15:38;102513.97;;;4.56;100.00
72896;BME280;61036;53.224;6.554;2023-04-08T04:18:04;102523.09;;;4.48;100.00
72896;BME280;61036;53.224;6.554;2023-04-08T04:20:30;102519.59;;;4.44;100.00
72896;BME280;61036;53.224;6.554;2023-04-08T04:22:55;102522.41;;;4.38;100.00
72896;BME280;61036;53.224;6.554;2023-04-08T04:25:21;102519.72;;;4.40;100.00
72896;BME280;61036;53.224;6.554;2023-04-08T04:27:47;102532.75;;;4.53;100.00
72896;BME280;61036;53.224;6.554;2023-04-08T04:30:12;102540.19;;;4.41;100.00
72896;BME280;61036;53.224;6.554;2023-04-08T04:32:41;102533.63;;;4.54;100.00
72896;BME280;61036;53.224;6.554;2023-04-08T04:35:08;102537.97;;;4.59;100.00
72896;BME280;61036;53.224;6.554;2023-04-08T04:37:34;102530.16;;;4.50;100.00
72896;BME280;61036;53.224;6.554;2023-04-08T04:40:01;102544.25;;;4.57;100.00
72896;BME280;61036;53.224;6.554;2023-04-08T04:42:27;102543.44;;;4.55;100.00
72896;BME280;61036;53.224;6.554;2023-04-08T04:44:52;102541.66;;;4.54;100.00
72896;BME280;61036;53.224;6.554;2023-04-08T04:47:18;102549.66;;;4.54;100.00
72896;BME280;61036;53.224;6.554;2023-04-08T04:49:44;102539.09;;;4.48;100.00
72896;BME280;61036;53.224;6.554;2023-04-08T04:52:10;102536.28;;;4.55;100.00
72896;BME280;61036;53.224;6.554;2023-04-08T04:54:36;102542.63;;;4.50;100.00
72896;BME280;61036;53.224;6.554;2023-04-08T04:57:01;102539.91;;;4.53;100.00
72896;BME280;61036;53.224;6.554;2023-04-08T04:59:27;102550.44;;;4.59;100.00
72896;BME280;61036;53.224;6.554;2023-04-08T05:01:52;102549.78;;;4.48;100.00
72896;BME280;61036;53.224;6.554;2023-04-08T05:04:18;102549.56;;;4.58;100.00
72896;BME280;61036;53.224;6.554;2023-04-08T05:06:43;102552.97;;;4.65;100.00
72896;BME280;61036;53.224;6.554;2023-04-08T05:09:09;102553.03;;;4.64;100.00
72896;BME280;61036;53.224;6.554;2023-04-08T05:11:35;102557.28;;;4.72;100.00
72896;BME280;61036;53.224;6.554;2023-04-08T05:14:00;102562.41;;;4.81;100.00
72896;BME280;61036;53.224;6.554;2023-04-08T05:16:26;102558.81;;;4.82;100.00
72896;BME280;61036;53.224;6.554;2023-04-08T05:18:51;102571.25;;;4.84;100.00
72896;BME280;61036;53.224;6.554;2023-04-08T05:21:17;102572.84;;;4.92;100.00
72896;BME280;61036;53.224;6.554;2023-04-08T05:23:42;102561.41;;;4.86;100.00
72896;BME280;61036;53.224;6.554;2023-04-08T05:26:08;102570.66;;;5.08;100.00
72896;BME280;61036;53.224;6.554;2023-04-08T05:28:34;102569.84;;;5.06;100.00
72896;BME280;61036;53.224;6.554;2023-04-08T05:31:00;102570.50;;;5.14;100.00
72896;BME280;61036;53.224;6.554;2023-04-08T05:33:26;102571.28;;;5.19;100.00
72896;BME280;61036;53.224;6.554;2023-04-08T05:35:51;102577.22;;;5.32;100.00
72896;BME280;61036;53.224;6.554;2023-04-08T05:38:17;102572.44;;;5.45;100.00
72896;BME280;61036;53.224;6.554;2023-04-08T05:40:43;102577.09;;;5.37;100.00
72896;BME280;61036;53.224;6.554;2023-04-08T05:43:08;102573.19;;;5.50;100.00
72896;BME280;61036;53.224;6.554;2023-04-08T05:45:34;102569.56;;;5.53;100.00
72896;BME280;61036;53.224;6.554;2023-04-08T05:48:00;102579.22;;;5.58;100.00
72896;BME280;61036;53.224;6.554;2023-04-08T05:50:25;102578.94;;;5.69;100.00
72896;BME280;61036;53.224;6.554;2023-04-08T05:52:51;102593.00;;;5.77;100.00
72896;BME280;61036;53.224;6.554;2023-04-08T05:55:16;102595.25;;;5.92;100.00
72896;BME280;61036;53.224;6.554;2023-04-08T05:57:42;102595.41;;;6.21;100.00
72896;BME280;61036;53.224;6.554;2023-04-08T06:00:09;102590.88;;;6.23;100.00
72896;BME280;61036;53.224;6.554;2023-04-08T06:02:36;102590.00;;;6.53;100.00
72896;BME280;61036;53.224;6.554;2023-04-08T06:05:02;102595.50;;;6.77;100.00
72896;BME280;61036;53.224;6.554;2023-04-08T06:07:28;102588.97;;;6.85;100.00
72896;BME280;61036;53.224;6.554;2023-04-08T06:09:54;102588.09;;;6.85;100.00
72896;BME280;61036;53.224;6.554;2023-04-08T06:12:20;102591.97;;;7.04;100.00
72896;BME280;61036;53.224;6.554;2023-04-08T06:14:46;102594.50;;;7.09;100.00
72896;BME280;61036;53.224;6.554;2023-04-08T06:17:12;102600.81;;;7.06;100.00
72896;BME280;61036;53.224;6.554;2023-04-08T06:19:37;102597.81;;;7.17;100.00
72896;BME280;61036;53.224;6.554;2023-04-08T06:22:03;102598.34;;;7.28;100.00
72896;BME280;61036;53.224;6.554;2023-04-08T06:24:28;102604.44;;;6.77;100.00
72896;BME280;61036;53.224;6.554;2023-04-08T06:26:54;102600.28;;;7.23;100.00
72896;BME280;61036;53.224;6.554;2023-04-08T06:29:21;102595.09;;;8.20;100.00
72896;BME280;61036;53.224;6.554;2023-04-08T06:31:47;102596.06;;;8.90;100.00
72896;BME280;61036;53.224;6.554;2023-04-08T06:34:13;102600.63;;;7.92;100.00
72896;BME280;61036;53.224;6.554;2023-04-08T06:36:39;102609.91;;;7.57;100.00
72896;BME280;61036;53.224;6.554;2023-04-08T06:39:04;102612.47;;;7.07;100.00
72896;BME280;61036;53.224;6.554;2023-04-08T06:41:30;102614.84;;;7.16;100.00
72896;BME280;61036;53.224;6.554;2023-04-08T06:44:01;102620.81;;;7.52;100.00
72896;BME280;61036;53.224;6.554;2023-04-08T06:46:27;102621.88;;;7.47;100.00
72896;BME280;61036;53.224;6.554;2023-04-08T06:48:52;102617.22;;;7.78;100.00
72896;BME280;61036;53.224;6.554;2023-04-08T06:51:18;102620.59;;;7.59;100.00
72896;BME280;61036;53.224;6.554;2023-04-08T06:53:43;102616.88;;;8.38;100.00
72896;BME280;61036;53.224;6.554;2023-04-08T06:56:09;102609.41;;;8.21;100.00
72896;BME280;61036;53.224;6.554;2023-04-08T06:58:35;102611.09;;;8.25;100.00
72896;BME280;61036;53.224;6.554;2023-04-08T07:01:00;102612.69;;;8.54;100.00
72896;BME280;61036;53.224;6.554;2023-04-08T07:03:27;102608.59;;;9.35;100.00
72896;BME280;61036;53.224;6.554;2023-04-08T07:05:52;102606.63;;;10.61;100.00
72896;BME280;61036;53.224;6.554;2023-04-08T07:08:18;102606.00;;;10.56;100.00
72896;BME280;61036;53.224;6.554;2023-04-08T07:10:43;102607.38;;;8.76;100.00
72896;BME280;61036;53.224;6.554;2023-04-08T07:13:09;102611.84;;;9.21;100.00
72896;BME280;61036;53.224;6.554;2023-04-08T07:15:35;102616.88;;;9.93;100.00
72896;BME280;61036;53.224;6.554;2023-04-08T07:18:00;102617.06;;;10.50;100.00
72896;BME280;61036;53.224;6.554;2023-04-08T07:20:27;102628.28;;;9.35;100.00
72896;BME280;61036;53.224;6.554;2023-04-08T07:22:52;102625.16;;;9.02;100.00
72896;BME280;61036;53.224;6.554;2023-04-08T07:25:18;102625.94;;;9.06;100.00
72896;BME280;61036;53.224;6.554;2023-04-08T07:27:43;102627.00;;;9.24;100.00
72896;BME280;61036;53.224;6.554;2023-04-08T07:30:09;102635.38;;;9.60;100.00
72896;BME280;61036;53.224;6.554;2023-04-08T07:32:34;102641.69;;;9.59;100.00
72896;BME280;61036;53.224;6.554;2023-04-08T07:35:01;102648.34;;;8.83;100.00
72896;BME280;61036;53.224;6.554;2023-04-08T07:37:27;102653.19;;;7.99;100.00
72896;BME280;61036;53.224;6.554;2023-04-08T07:39:52;102646.53;;;8.83;100.00
72896;BME280;61036;53.224;6.554;2023-04-08T07:42:18;102650.78;;;8.42;100.00
72896;BME280;61036;53.224;6.554;2023-04-08T07:44:46;102657.03;;;8.91;100.00
72896;BME280;61036;53.224;6.554;2023-04-08T07:47:11;102652.03;;;8.57;100.00
72896;BME280;61036;53.224;6.554;2023-04-08T07:49:37;102657.25;;;8.61;100.00
72896;BME280;61036;53.224;6.554;2023-04-08T07:52:03;102661.78;;;8.09;100.00
72896;BME280;61036;53.224;6.554;2023-04-08T07:54:32;102664.19;;;8.43;100.00
72896;BME280;61036;53.224;6.554;2023-04-08T07:56:59;102673.16;;;7.92;100.00
72896;BME280;61036;53.224;6.554;2023-04-08T07:59:25;102664.19;;;8.43;100.00
72896;BME280;61036;53.224;6.554;2023-04-08T08:01:51;102669.91;;;8.81;100.00
72896;BME280;61036;53.224;6.554;2023-04-08T08:04:17;102662.56;;;8.86;100.00
72896;BME280;61036;53.224;6.554;2023-04-08T08:06:42;102663.38;;;9.12;100.00
72896;BME280;61036;53.224;6.554;2023-04-08T08:09:08;102655.81;;;9.22;100.00
72896;BME280;61036;53.224;6.554;2023-04-08T08:11:33;102663.78;;;9.23;100.00
72896;BME280;61036;53.224;6.554;2023-04-08T08:13:59;102661.63;;;9.33;100.00
72896;BME280;61036;53.224;6.554;2023-04-08T08:16:27;102653.72;;;9.06;100.00
72896;BME280;61036;53.224;6.554;2023-04-08T08:18:53;102665.13;;;9.13;100.00
72896;BME280;61036;53.224;6.554;2023-04-08T08:21:18;102653.47;;;9.12;100.00
72896;BME280;61036;53.224;6.554;2023-04-08T08:23:44;102664.13;;;9.15;100.00
72896;BME280;61036;53.224;6.554;2023-04-08T08:26:09;102659.84;;;9.10;100.00
72896;BME280;61036;53.224;6.554;2023-04-08T08:28:35;102673.97;;;8.46;100.00
72896;BME280;61036;53.224;6.554;2023-04-08T08:31:01;102682.06;;;7.93;100.00
72896;BME280;61036;53.224;6.554;2023-04-08T08:33:27;102682.16;;;8.16;100.00
72896;BME280;61036;53.224;6.554;2023-04-08T08:35:53;102700.66;;;7.99;100.00
72896;BME280;61036;53.224;6.554;2023-04-08T08:38:19;102709.88;;;7.92;100.00
72896;BME280;61036;53.224;6.554;2023-04-08T08:40:45;102707.69;;;8.03;100.00
72896;BME280;61036;53.224;6.554;2023-04-08T08:43:10;102698.84;;;7.46;100.00
72896;BME280;61036;53.224;6.554;2023-04-08T08:45:40;102706.00;;;7.74;100.00
72896;BME280;61036;53.224;6.554;2023-04-08T08:48:07;102706.34;;;7.90;100.00
72896;BME280;61036;53.224;6.554;2023-04-08T08:50:33;102715.03;;;7.71;100.00
72896;BME280;61036;53.224;6.554;2023-04-08T08:52:59;102719.19;;;7.53;100.00
72896;BME280;61036;53.224;6.554;2023-04-08T08:55:27;102714.22;;;7.96;100.00
72896;BME280;61036;53.224;6.554;2023-04-08T08:57:54;102720.16;;;7.23;100.00
72896;BME280;61036;53.224;6.554;2023-04-08T09:00:30;102717.75;;;7.43;100.00
72896;BME280;61036;53.224;6.554;2023-04-08T09:02:56;102717.66;;;7.99;100.00
72896;BME280;61036;53.224;6.554;2023-04-08T09:05:21;102720.44;;;7.96;100.00
72896;BME280;61036;53.224;6.554;2023-04-08T09:07:47;102728.19;;;8.06;100.00
72896;BME280;61036;53.224;6.554;2023-04-08T09:10:12;102732.03;;;8.25;100.00
72896;BME280;61036;53.224;6.554;2023-04-08T09:12:54;102720.50;;;8.72;100.00
72896;BME280;61036;53.224;6.554;2023-04-08T09:15:22;102699.19;;;8.67;100.00
72896;BME280;61036;53.224;6.554;2023-04-08T09:17:48;102704.78;;;8.84;100.00
72896;BME280;61036;53.224;6.554;2023-04-08T09:20:13;102709.94;;;8.67;100.00
72896;BME280;61036;53.224;6.554;2023-04-08T09:23:00;102702.97;;;9.08;100.00
72896;BME280;61036;53.224;6.554;2023-04-08T09:25:28;102704.28;;;8.98;100.00
72896;BME280;61036;53.224;6.554;2023-04-08T09:27:54;102698.25;;;9.15;100.00
72896;BME280;61036;53.224;6.554;2023-04-08T09:30:22;102701.34;;;8.81;100.00
72896;BME280;61036;53.224;6.554;2023-04-08T09:32:55;102708.06;;;9.16;100.00
72896;BME280;61036;53.224;6.554;2023-04-08T09:35:21;102697.56;;;9.32;100.00
72896;BME280;61036;53.224;6.554;2023-04-08T09:37:48;102706.47;;;8.38;100.00
72896;BME280;61036;53.224;6.554;2023-04-08T09:40:14;102701.81;;;8.92;100.00
72896;BME280;61036;53.224;6.554;2023-04-08T09:42:47;102702.06;;;9.31;100.00
72896;BME280;61036;53.224;6.554;2023-04-08T09:45:17;102697.56;;;9.08;100.00
72896;BME280;61036;53.224;6.554;2023-04-08T09:48:16;102702.44;;;9.88;100.00
72896;BME280;61036;53.224;6.554;2023-04-08T09:50:48;102696.63;;;10.40;100.00
72896;BME280;61036;53.224;6.554;2023-04-08T09:53:19;102701.13;;;9.32;100.00
72896;BME280;61036;53.224;6.554;2023-04-08T09:55:49;102707.88;;;9.87;100.00
72896;BME280;61036;53.224;6.554;2023-04-08T09:58:18;102703.81;;;9.76;100.00
72896;BME280;61036;53.224;6.554;2023-04-08T10:00:48;102688.00;;;10.32;100.00
72896;BME280;61036;53.224;6.554;2023-04-08T10:06:15;102698.44;;;9.76;100.00
72896;BME280;61036;53.224;6.554;2023-04-08T10:08:42;102702.03;;;9.97;100.00
72896;BME280;61036;53.224;6.554;2023-04-08T10:11:08;102698.75;;;10.11;100.00
72896;BME280;61036;53.224;6.554;2023-04-08T10:13:35;102703.25;;;9.90;100.00
72896;BME280;61036;53.224;6.554;2023-04-08T10:16:29;102701.28;;;10.36;100.00
72896;BME280;61036;53.224;6.554;2023-04-08T10:18:55;102711.59;;;10.26;100.00
72896;BME280;61036;53.224;6.554;2023-04-08T10:21:34;102716.59;;;10.56;100.00
72896;BME280;61036;53.224;6.554;2023-04-08T10:24:00;102715.22;;;9.83;100.00
72896;BME280;61036;53.224;6.554;2023-04-08T10:26:32;102714.59;;;9.76;100.00
72896;BME280;61036;53.224;6.554;2023-04-08T10:29:31;102722.19;;;9.45;100.00
72896;BME280;61036;53.224;6.554;2023-04-08T10:31:56;102717.91;;;9.83;100.00
72896;BME280;61036;53.224;6.554;2023-04-08T10:34:23;102716.00;;;10.29;100.00
72896;BME280;61036;53.224;6.554;2023-04-08T10:36:51;102716.66;;;10.34;100.00
72896;BME280;61036;53.224;6.554;2023-04-08T10:39:17;102714.84;;;10.13;100.00
72896;BME280;61036;53.224;6.554;2023-04-08T10:41:43;102722.47;;;10.03;100.00
72896;BME280;61036;53.224;6.554;2023-04-08T10:44:15;102710.94;;;9.77;100.00
72896;BME280;61036;53.224;6.554;2023-04-08T10:46:42;102710.16;;;9.08;100.00
72896;BME280;61036;53.224;6.554;2023-04-08T10:49:08;102706.03;;;9.67;100.00
72896;BME280;61036;53.224;6.554;2023-04-08T10:51:33;102707.13;;;10.05;100.00
72896;BME280;61036;53.224;6.554;2023-04-08T10:56:32;102695.75;;;10.60;100.00
72896;BME280;61036;53.224;6.554;2023-04-08T10:58:58;102692.06;;;9.57;100.00
72896;BME280;61036;53.224;6.554;2023-04-08T11:01:24;102695.34;;;10.28;100.00
72896;BME280;61036;53.224;6.554;2023-04-08T11:03:50;102691.75;;;10.68;100.00
72896;BME280;61036;53.224;6.554;2023-04-08T11:06:16;102691.09;;;10.82;100.00
72896;BME280;61036;53.224;6.554;2023-04-08T11:08:42;102699.09;;;11.04;100.00
72896;BME280;61036;53.224;6.554;2023-04-08T11:11:09;102693.09;;;10.17;100.00
72896;BME280;61036;53.224;6.554;2023-04-08T11:13:40;102695.31;;;10.69;100.00
72896;BME280;61036;53.224;6.554;2023-04-08T11:16:06;102681.25;;;10.62;100.00
72896;BME280;61036;53.224;6.554;2023-04-08T11:18:38;102688.69;;;10.95;100.00
72896;BME280;61036;53.224;6.554;2023-04-08T11:21:08;102683.97;;;11.00;100.00
72896;BME280;61036;53.224;6.554;2023-04-08T11:23:35;102681.19;;;10.23;100.00
72896;BME280;61036;53.224;6.554;2023-04-08T11:26:00;102677.53;;;10.84;100.00
72896;BME280;61036;53.224;6.554;2023-04-08T11:28:27;102683.56;;;10.70;100.00
72896;BME280;61036;53.224;6.554;2023-04-08T11:30:53;102687.69;;;10.58;100.00
72896;BME280;61036;53.224;6.554;2023-04-08T11:33:19;102690.03;;;9.84;100.00
72896;BME280;61036;53.224;6.554;2023-04-08T11:35:49;102682.72;;;10.88;100.00
72896;BME280;61036;53.224;6.554;2023-04-08T11:38:15;102690.94;;;10.25;100.00
72896;BME280;61036;53.224;6.554;2023-04-08T11:40:54;102681.94;;;10.86;100.00
72896;BME280;61036;53.224;6.554;2023-04-08T11:43:20;102685.72;;;10.62;100.00
72896;BME280;61036;53.224;6.554;2023-04-08T11:45:46;102681.41;;;10.97;100.00
72896;BME280;61036;53.224;6.554;2023-04-08T11:48:13;102693.91;;;11.55;100.00
72896;BME280;61036;53.224;6.554;2023-04-08T11:50:40;102697.78;;;10.34;100.00
72896;BME280;61036;53.224;6.554;2023-04-08T11:53:24;102698.63;;;10.35;100.00
72896;BME280;61036;53.224;6.554;2023-04-08T11:55:50;102686.56;;;10.64;100.00
72896;BME280;61036;53.224;6.554;2023-04-08T11:58:16;102696.75;;;10.57;100.00
72896;BME280;61036;53.224;6.554;2023-04-08T12:00:42;102695.59;;;10.63;100.00
72896;BME280;61036;53.224;6.554;2023-04-08T12:03:08;102708.63;;;10.53;100.00
72896;BME280;61036;53.224;6.554;2023-04-08T12:05:34;102714.50;;;10.00;100.00
72896;BME280;61036;53.224;6.554;2023-04-08T12:08:00;102714.06;;;10.72;100.00
72896;BME280;61036;53.224;6.554;2023-04-08T12:10:26;102713.75;;;10.39;100.00
72896;BME280;61036;53.224;6.554;2023-04-08T12:12:52;102710.44;;;10.52;100.00
72896;BME280;61036;53.224;6.554;2023-04-08T12:15:18;102706.72;;;10.94;100.00
72896;BME280;61036;53.224;6.554;2023-04-08T12:17:43;102700.81;;;11.24;100.00
72896;BME280;61036;53.224;6.554;2023-04-08T12:20:10;102698.56;;;10.96;100.00
72896;BME280;61036;53.224;6.554;2023-04-08T12:22:36;102699.44;;;10.57;100.00
72896;BME280;61036;53.224;6.554;2023-04-08T12:25:02;102699.28;;;10.99;100.00
72896;BME280;61036;53.224;6.554;2023-04-08T12:27:29;102694.88;;;10.59;100.00
72896;BME280;61036;53.224;6.554;2023-04-08T12:29:54;102699.81;;;10.29;100.00
72896;BME280;61036;53.224;6.554;2023-04-08T12:32:20;102701.56;;;10.30;100.00
72896;BME280;61036;53.224;6.554;2023-04-08T12:34:46;102702.19;;;10.56;100.00
72896;BME280;61036;53.224;6.554;2023-04-08T12:37:12;102703.19;;;10.73;100.00
72896;BME280;61036;53.224;6.554;2023-04-08T12:39:37;102699.31;;;10.60;100.00
72896;BME280;61036;53.224;6.554;2023-04-08T12:42:03;102702.97;;;10.39;100.00
72896;BME280;61036;53.224;6.554;2023-04-08T12:44:29;102701.75;;;9.83;100.00
72896;BME280;61036;53.224;6.554;2023-04-08T12:46:55;102708.09;;;10.45;100.00
72896;BME280;61036;53.224;6.554;2023-04-08T12:49:23;102707.47;;;10.59;100.00
72896;BME280;61036;53.224;6.554;2023-04-08T12:51:49;102704.72;;;10.60;100.00
72896;BME280;61036;53.224;6.554;2023-04-08T12:54:15;102697.59;;;10.97;100.00
72896;BME280;61036;53.224;6.554;2023-04-08T12:56:41;102701.03;;;10.82;100.00